sensor_id;sensor_type;location;lat;lon;timestamp;pressure;altitude;pressure_sealevel;temperature;humidity
72096;BME280;59968;51.084;16.748;2024-03-23T00:55:03;99465.65;;;11.62;76.26
72096;BME280;59968;51.084;16.748;2024-03-23T00:57:31;99461.57;;;11.63;76.33
72096;BME280;59968;51.084;16.748;2024-03-23T00:59:59;99457.26;;;11.63;76.38
72096;BME280;59968;51.084;16.748;2024-03-23T01:02:28;99449.77;;;11.63;76.40
72096;BME280;59968;51.084;16.748;2024-03-23T01:04:56;99443.07;;;11.63;76.36
72096;BME280;59968;51.084;16.748;2024-03-23T01:07:24;99443.27;;;11.63;76.45
72096;BME280;59968;51.084;16.748;2024-03-23T01:09:52;99441.61;;;11.63;76.47
72096;BME280;59968;51.084;16.748;2024-03-23T01:12:21;99432.82;;;11.64;76.42
72096;BME280;59968;51.084;16.748;2024-03-23T01:14:49;99427.59;;;11.65;76.36
72096;BME280;59968;51.084;16.748;2024-03-23T01:17:17;99423.30;;;11.65;76.26
72096;BME280;59968;51.084;16.748;2024-03-23T01:19:45;99418.70;;;11.65;76.11
72096;BME280;59968;51.084;16.748;2024-03-23T01:22:13;99415.13;;;11.63;76.12
72096;BME280;59968;51.084;16.748;2024-03-23T01:24:41;99410.04;;;11.64;76.13
72096;BME280;59968;51.084;16.748;2024-03-23T01:27:09;99405.77;;;11.63;76.12
72096;BME280;59968;51.084;16.748;2024-03-23T01:29:37;99394.11;;;11.60;75.99
72096;BME280;59968;51.084;16.748;2024-03-23T01:32:06;99391.42;;;11.57;76.06
72096;BME280;59968;51.084;16.748;2024-03-23T01:34:35;99384.79;;;11.55;75.95
72096;BME280;59968;51.084;16.748;2024-03-23T01:37:03;99380.10;;;11.52;75.98
72096;BME280;59968;51.084;16.748;2024-03-23T01:39:30;99377.45;;;11.49;76.04
72096;BME280;59968;51.084;16.748;2024-03-23T01:41:58;99375.48;;;11.48;75.95
72096;BME280;59968;51.084;16.748;2024-03-23T01:44:26;99371.23;;;11.48;75.84
72096;BME280;59968;51.084;16.748;2024-03-23T01:46:54;99363.50;;;11.48;75.79
72096;BME280;59968;51.084;16.748;2024-03-23T01:49:23;99368.94;;;11.46;75.80
72096;BME280;59968;51.084;16.748;2024-03-23T01:51:52;99364.79;;;11.46;75.80
72096;BME280;59968;51.084;16.748;2024-03-23T01:54:20;99364.30;;;11.46;75.85
72096;BME280;59968;51.084;16.748;2024-03-23T01:56:48;99356.59;;;11.47;75.83
72096;BME280;59968;51.084;16.748;2024-03-23T01:59:17;99356.58;;;11.46;75.80
72096;BME280;59968;51.084;16.748;2024-03-23T02:01:45;99359.23;;;11.46;75.81
72096;BME280;59968;51.084;16.748;2024-03-23T02:04:14;99362.86;;;11.46;75.88
72096;BME280;59968;51.084;16.748;2024-03-23T02:06:42;99358.23;;;11.47;75.93
72096;BME280;59968;51.084;16.748;2024-03-23T02:09:10;99348.05;;;11.47;75.90
72096;BME280;59968;51.084;16.748;2024-03-23T02:11:38;99343.60;;;11.48;75.73
72096;BME280;59968;51.084;16.748;2024-03-23T02:14:06;99333.88;;;11.49;75.77
72096;BME280;59968;51.084;16.748;2024-03-23T02:16:35;99325.66;;;11.51;75.74
72096;BME280;59968;51.084;16.748;2024-03-23T02:19:03;99322.25;;;11.52;75.78
72096;BME280;59968;51.084;16.748;2024-03-23T02:21:32;99317.05;;;11.53;75.75
72096;BME280;59968;51.084;16.748;2024-03-23T02:24:00;99320.27;;;11.55;75.69
72096;BME280;59968;51.084;16.748;2024-03-23T02:26:28;99323.45;;;11.55;75.70
72096;BME280;59968;51.084;16.748;2024-03-23T02:28:56;99320.14;;;11.56;75.59
72096;BME280;59968;51.084;16.748;2024-03-23T02:31:24;99315.83;;;11.56;75.54
72096;BME280;59968;51.084;16.748;2024-03-23T02:33:52;99311.30;;;11.53;75.47
72096;BME280;59968;51.084;16.748;2024-03-23T02:36:20;99309.58;;;11.53;75.53
72096;BME280;59968;51.084;16.748;2024-03-23T02:38:49;99304.52;;;11.52;75.58
72096;BME280;59968;51.084;16.748;2024-03-23T02:41:17;99301.15;;;11.53;75.63
72096;BME280;59968;51.084;16.748;2024-03-23T02:43:50;99304.21;;;11.53;75.54
72096;BME280;59968;51.084;16.748;2024-03-23T02:46:18;99309.06;;;11.53;75.59
72096;BME280;59968;51.084;16.748;2024-03-23T02:48:48;99302.06;;;11.56;75.69
72096;BME280;59968;51.084;16.748;2024-03-23T02:51:16;99297.55;;;11.60;75.68
72096;BME280;59968;51.084;16.748;2024-03-23T02:53:44;99292.24;;;11.62;75.46
72096;BME280;59968;51.084;16.748;2024-03-23T02:56:13;99291.19;;;11.63;75.32
72096;BME280;59968;51.084;16.748;2024-03-23T02:58:43;99292.42;;;11.63;75.19
72096;BME280;59968;51.084;16.748;2024-03-23T03:01:12;99284.66;;;11.64;75.02
72096;BME280;59968;51.084;16.748;2024-03-23T03:03:42;99287.55;;;11.63;74.95
72096;BME280;59968;51.084;16.748;2024-03-23T03:06:10;99285.27;;;11.63;74.91
72096;BME280;59968;51.084;16.748;2024-03-23T03:08:38;99275.28;;;11.63;74.87
72096;BME280;59968;51.084;16.748;2024-03-23T03:11:06;99272.94;;;11.60;74.96
72096;BME280;59968;51.084;16.748;2024-03-23T03:13:34;99270.74;;;11.59;75.05
72096;BME280;59968;51.084;16.748;2024-03-23T03:16:02;99262.27;;;11.58;75.05
72096;BME280;59968;51.084;16.748;2024-03-23T03:18:30;99259.73;;;11.58;74.95
72096;BME280;59968;51.084;16.748;2024-03-23T03:20:58;99254.79;;;11.57;74.95
72096;BME280;59968;51.084;16.748;2024-03-23T03:23:31;99252.88;;;11.58;74.85
72096;BME280;59968;51.084;16.748;2024-03-23T03:25:59;99244.64;;;11.58;74.75
72096;BME280;59968;51.084;16.748;2024-03-23T03:28:27;99245.51;;;11.58;74.63
72096;BME280;59968;51.084;16.748;2024-03-23T03:31:01;99242.37;;;11.57;74.56
72096;BME280;59968;51.084;16.748;2024-03-23T03:33:29;99235.09;;;11.57;74.51
72096;BME280;59968;51.084;16.748;2024-03-23T03:35:57;99228.54;;;11.57;74.50
72096;BME280;59968;51.084;16.748;2024-03-23T03:38:25;99228.00;;;11.56;74.55
72096;BME280;59968;51.084;16.748;2024-03-23T03:40:53;99223.00;;;11.54;74.42
72096;BME280;59968;51.084;16.748;2024-03-23T03:43:21;99214.81;;;11.50;74.38
72096;BME280;59968;51.084;16.748;2024-03-23T03:45:54;99217.96;;;11.51;74.39
72096;BME280;59968;51.084;16.748;2024-03-23T03:48:25;99215.05;;;11.51;74.40
72096;BME280;59968;51.084;16.748;2024-03-23T03:50:53;99218.48;;;11.51;74.48
72096;BME280;59968;51.084;16.748;2024-03-23T03:53:21;99221.85;;;11.52;74.43
72096;BME280;59968;51.084;16.748;2024-03-23T03:55:50;99220.89;;;11.52;74.43
72096;BME280;59968;51.084;16.748;2024-03-23T03:58:18;99216.79;;;11.52;74.35
72096;BME280;59968;51.084;16.748;2024-03-23T04:00:46;99219.54;;;11.52;74.28
72096;BME280;59968;51.084;16.748;2024-03-23T04:03:16;99218.19;;;11.52;74.12
72096;BME280;59968;51.084;16.748;2024-03-23T04:05:53;99218.89;;;11.51;74.01
72096;BME280;59968;51.084;16.748;2024-03-23T04:08:21;99215.46;;;11.49;73.95
72096;BME280;59968;51.084;16.748;2024-03-23T04:10:49;99219.67;;;11.49;73.92
72096;BME280;59968;51.084;16.748;2024-03-23T04:13:17;99223.39;;;11.48;73.81
72096;BME280;59968;51.084;16.748;2024-03-23T04:15:45;99222.24;;;11.49;73.95
72096;BME280;59968;51.084;16.748;2024-03-23T04:18:13;99224.77;;;11.48;74.02
72096;BME280;59968;51.084;16.748;2024-03-23T04:20:42;99224.92;;;11.50;74.01
72096;BME280;59968;51.084;16.748;2024-03-23T04:23:10;99223.81;;;11.49;73.99
72096;BME280;59968;51.084;16.748;2024-03-23T04:25:38;99214.19;;;11.50;73.96
72096;BME280;59968;51.084;16.748;2024-03-23T04:28:06;99213.33;;;11.51;73.85
72096;BME280;59968;51.084;16.748;2024-03-23T04:30:34;99211.09;;;11.51;73.73
72096;BME280;59968;51.084;16.748;2024-03-23T04:33:03;99208.09;;;11.51;73.65
72096;BME280;59968;51.084;16.748;2024-03-23T04:35:32;99201.46;;;11.48;73.55
72096;BME280;59968;51.084;16.748;2024-03-23T04:38:00;99204.66;;;11.51;73.50
72096;BME280;59968;51.084;16.748;2024-03-23T04:40:27;99203.58;;;11.49;73.32
72096;BME280;59968;51.084;16.748;2024-03-23T04:42:55;99204.95;;;11.48;73.26
72096;BME280;59968;51.084;16.748;2024-03-23T04:45:24;99204.70;;;11.45;73.30
72096;BME280;59968;51.084;16.748;2024-03-23T04:47:52;99199.02;;;11.43;73.14
72096;BME280;59968;51.084;16.748;2024-03-23T04:50:21;99199.02;;;11.42;73.04
72096;BME280;59968;51.084;16.748;2024-03-23T04:52:49;99193.96;;;11.41;72.96
72096;BME280;59968;51.084;16.748;2024-03-23T04:55:17;99194.14;;;11.40;72.87
72096;BME280;59968;51.084;16.748;2024-03-23T04:57:44;99193.64;;;11.39;72.93
72096;BME280;59968;51.084;16.748;2024-03-23T05:00:13;99194.83;;;11.37;72.76
72096;BME280;59968;51.084;16.748;2024-03-23T05:02:46;99193.46;;;11.32;72.78
72096;BME280;59968;51.084;16.748;2024-03-23T05:05:14;99190.88;;;11.28;72.65
72096;BME280;59968;51.084;16.748;2024-03-23T05:07:42;99188.73;;;11.24;72.72
72096;BME280;59968;51.084;16.748;2024-03-23T05:10:11;99189.55;;;11.22;72.73
72096;BME280;59968;51.084;16.748;2024-03-23T05:12:39;99187.95;;;11.17;72.72
72096;BME280;59968;51.084;16.748;2024-03-23T05:15:08;99183.04;;;11.17;72.78
72096;BME280;59968;51.084;16.748;2024-03-23T05:17:36;99177.70;;;11.15;72.84
72096;BME280;59968;51.084;16.748;2024-03-23T05:20:05;99173.28;;;11.15;72.86
72096;BME280;59968;51.084;16.748;2024-03-23T05:22:37;99169.48;;;11.15;72.87
72096;BME280;59968;51.084;16.748;2024-03-23T05:25:05;99170.38;;;11.15;72.76
72096;BME280;59968;51.084;16.748;2024-03-23T05:27:34;99167.77;;;11.15;72.83
72096;BME280;59968;51.084;16.748;2024-03-23T05:30:02;99163.17;;;11.15;72.81
72096;BME280;59968;51.084;16.748;2024-03-23T05:32:31;99158.63;;;11.18;72.69
72096;BME280;59968;51.084;16.748;2024-03-23T05:34:59;99156.88;;;11.18;72.65
72096;BME280;59968;51.084;16.748;2024-03-23T05:37:27;99154.84;;;11.18;72.65
72096;BME280;59968;51.084;16.748;2024-03-23T05:39:56;99159.70;;;11.24;72.68
72096;BME280;59968;51.084;16.748;2024-03-23T05:42:24;99155.95;;;11.30;72.53
72096;BME280;59968;51.084;16.748;2024-03-23T05:44:52;99147.28;;;11.35;72.26
72096;BME280;59968;51.084;16.748;2024-03-23T05:47:20;99141.19;;;11.40;72.15
72096;BME280;59968;51.084;16.748;2024-03-23T05:49:49;99138.30;;;11.43;72.01
72096;BME280;59968;51.084;16.748;2024-03-23T05:52:19;99137.79;;;11.48;72.09
72096;BME280;59968;51.084;16.748;2024-03-23T05:54:49;99137.27;;;11.48;72.20
72096;BME280;59968;51.084;16.748;2024-03-23T05:57:17;99136.73;;;11.47;72.13
72096;BME280;59968;51.084;16.748;2024-03-23T05:59:48;99143.00;;;11.52;72.04
72096;BME280;59968;51.084;16.748;2024-03-23T06:02:17;99144.80;;;11.58;71.85
72096;BME280;59968;51.084;16.748;2024-03-23T06:04:45;99146.59;;;11.63;71.76
72096;BME280;59968;51.084;16.748;2024-03-23T06:07:14;99153.31;;;11.70;71.57
72096;BME280;59968;51.084;16.748;2024-03-23T06:09:42;99164.85;;;11.76;71.53
72096;BME280;59968;51.084;16.748;2024-03-23T06:12:10;99164.55;;;11.84;71.35
72096;BME280;59968;51.084;16.748;2024-03-23T06:14:38;99160.21;;;11.91;71.17
72096;BME280;59968;51.084;16.748;2024-03-23T06:17:07;99156.00;;;11.98;71.17
72096;BME280;59968;51.084;16.748;2024-03-23T06:19:35;99153.14;;;12.05;71.09
72096;BME280;59968;51.084;16.748;2024-03-23T06:22:03;99155.78;;;12.09;70.99
72096;BME280;59968;51.084;16.748;2024-03-23T06:24:34;99156.85;;;12.12;71.08
72096;BME280;59968;51.084;16.748;2024-03-23T06:27:03;99140.02;;;12.12;71.04
72096;BME280;59968;51.084;16.748;2024-03-23T06:29:31;99123.88;;;12.11;71.19
72096;BME280;59968;51.084;16.748;2024-03-23T06:32:00;99116.91;;;12.16;71.06
72096;BME280;59968;51.084;16.748;2024-03-23T06:34:28;99110.94;;;12.17;71.06
72096;BME280;59968;51.084;16.748;2024-03-23T06:36:56;99102.97;;;12.13;70.86
72096;BME280;59968;51.084;16.748;2024-03-23T06:39:25;99109.79;;;12.16;70.72
72096;BME280;59968;51.084;16.748;2024-03-23T06:41:54;99115.03;;;12.14;70.47
72096;BME280;59968;51.084;16.748;2024-03-23T06:44:22;99114.36;;;12.11;70.61
72096;BME280;59968;51.084;16.748;2024-03-23T06:46:51;99104.70;;;12.13;70.91
72096;BME280;59968;51.084;16.748;2024-03-23T06:49:19;99092.61;;;12.17;70.51
72096;BME280;59968;51.084;16.748;2024-03-23T06:51:49;99094.36;;;12.26;70.59
72096;BME280;59968;51.084;16.748;2024-03-23T06:54:18;99096.70;;;12.37;70.66
72096;BME280;59968;51.084;16.748;2024-03-23T06:56:47;99088.39;;;12.56;70.32
72096;BME280;59968;51.084;16.748;2024-03-23T06:59:15;99078.64;;;12.71;69.99
72096;BME280;59968;51.084;16.748;2024-03-23T07:01:44;99067.20;;;12.85;69.82
72096;BME280;59968;51.084;16.748;2024-03-23T07:04:13;99058.49;;;13.04;69.48
72096;BME280;59968;51.084;16.748;2024-03-23T07:06:43;99046.68;;;13.19;68.90
72096;BME280;59968;51.084;16.748;2024-03-23T07:09:12;99048.73;;;13.40;68.55
72096;BME280;59968;51.084;16.748;2024-03-23T07:11:40;99042.27;;;13.56;68.29
72096;BME280;59968;51.084;16.748;2024-03-23T07:14:09;99041.58;;;13.71;67.65
72096;BME280;59968;51.084;16.748;2024-03-23T07:16:37;99038.49;;;13.85;67.65
72096;BME280;59968;51.084;16.748;2024-03-23T07:19:05;99035.86;;;13.98;67.05
72096;BME280;59968;51.084;16.748;2024-03-23T07:21:33;99024.15;;;14.08;66.48
72096;BME280;59968;51.084;16.748;2024-03-23T07:24:02;99020.01;;;14.19;66.38
72096;BME280;59968;51.084;16.748;2024-03-23T07:26:30;99012.70;;;14.31;66.04
72096;BME280;59968;51.084;16.748;2024-03-23T07:28:58;99001.30;;;14.40;65.99
72096;BME280;59968;51.084;16.748;2024-03-23T07:31:27;99001.52;;;14.52;65.95
72096;BME280;59968;51.084;16.748;2024-03-23T07:33:56;98998.87;;;14.64;65.64
72096;BME280;59968;51.084;16.748;2024-03-23T07:36:25;99001.08;;;14.75;65.90
72096;BME280;59968;51.084;16.748;2024-03-23T07:38:56;98992.80;;;14.90;66.13
72096;BME280;59968;51.084;16.748;2024-03-23T07:41:39;98983.79;;;15.00;65.91
72096;BME280;59968;51.084;16.748;2024-03-23T07:44:07;98973.56;;;15.05;65.65
72096;BME280;59968;51.084;16.748;2024-03-23T07:46:36;98964.86;;;15.08;65.38
72096;BME280;59968;51.084;16.748;2024-03-23T07:49:04;98960.52;;;15.08;65.42
72096;BME280;59968;51.084;16.748;2024-03-23T07:51:33;98955.35;;;15.09;65.45
72096;BME280;59968;51.084;16.748;2024-03-23T07:54:03;98946.83;;;15.06;65.29
72096;BME280;59968;51.084;16.748;2024-03-23T07:56:31;98951.95;;;15.02;65.17
72096;BME280;59968;51.084;16.748;2024-03-23T07:59:00;98956.45;;;14.97;65.21
72096;BME280;59968;51.084;16.748;2024-03-23T08:01:29;98957.94;;;14.92;64.92
72096;BME280;59968;51.084;16.748;2024-03-23T08:03:57;98951.39;;;14.91;64.76
72096;BME280;59968;51.084;16.748;2024-03-23T08:06:26;98942.23;;;14.92;64.70
72096;BME280;59968;51.084;16.748;2024-03-23T08:08:59;98933.08;;;14.98;64.98
72096;BME280;59968;51.084;16.748;2024-03-23T08:11:32;98930.14;;;15.04;64.86
72096;BME280;59968;51.084;16.748;2024-03-23T08:14:02;98929.14;;;15.11;64.32
72096;BME280;59968;51.084;16.748;2024-03-23T08:16:32;98926.41;;;15.14;64.61
72096;BME280;59968;51.084;16.748;2024-03-23T08:19:02;98913.27;;;15.20;64.44
72096;BME280;59968;51.084;16.748;2024-03-23T08:21:32;98906.77;;;15.24;64.35
72096;BME280;59968;51.084;16.748;2024-03-23T08:24:00;98892.59;;;15.29;64.02
72096;BME280;59968;51.084;16.748;2024-03-23T08:26:29;98885.61;;;15.34;64.06
72096;BME280;59968;51.084;16.748;2024-03-23T08:28:57;98880.59;;;15.41;64.19
72096;BME280;59968;51.084;16.748;2024-03-23T08:31:26;98883.64;;;15.48;63.54
72096;BME280;59968;51.084;16.748;2024-03-23T08:33:55;98865.30;;;15.51;62.95
72096;BME280;59968;51.084;16.748;2024-03-23T08:36:23;98859.08;;;15.52;62.85
72096;BME280;59968;51.084;16.748;2024-03-23T08:38:52;98855.79;;;15.53;62.14
72096;BME280;59968;51.084;16.748;2024-03-23T08:41:22;98848.74;;;15.52;62.50
72096;BME280;59968;51.084;16.748;2024-03-23T08:43:51;98846.98;;;15.56;62.40
72096;BME280;59968;51.084;16.748;2024-03-23T08:46:20;98847.28;;;15.54;62.34
72096;BME280;59968;51.084;16.748;2024-03-23T08:48:50;98847.28;;;15.55;62.79
72096;BME280;59968;51.084;16.748;2024-03-23T08:51:20;98841.61;;;15.60;62.91
72096;BME280;59968;51.084;16.748;2024-03-23T08:53:49;98835.80;;;15.61;63.01
72096;BME280;59968;51.084;16.748;2024-03-23T08:56:17;98823.99;;;15.62;62.54
72096;BME280;59968;51.084;16.748;2024-03-23T08:58:45;98815.94;;;15.60;62.04
72096;BME280;59968;51.084;16.748;2024-03-23T09:01:14;98809.39;;;15.52;62.12
72096;BME280;59968;51.084;16.748;2024-03-23T09:03:42;98804.63;;;15.50;62.23
72096;BME280;59968;51.084;16.748;2024-03-23T09:06:12;98804.27;;;15.43;62.22
72096;BME280;59968;51.084;16.748;2024-03-23T09:08:41;98789.98;;;15.38;62.33
72096;BME280;59968;51.084;16.748;2024-03-23T09:11:11;98794.02;;;15.30;62.84
72096;BME280;59968;51.084;16.748;2024-03-23T09:13:39;98788.98;;;15.28;62.59
72096;BME280;59968;51.084;16.748;2024-03-23T09:16:10;98778.17;;;15.25;62.88
72096;BME280;59968;51.084;16.748;2024-03-23T09:18:38;98775.36;;;15.25;62.85
72096;BME280;59968;51.084;16.748;2024-03-23T09:21:13;98767.11;;;15.25;63.11
72096;BME280;59968;51.084;16.748;2024-03-23T09:23:45;98764.02;;;15.26;63.17
72096;BME280;59968;51.084;16.748;2024-03-23T09:26:14;98754.45;;;15.26;63.21
72096;BME280;59968;51.084;16.748;2024-03-23T09:28:43;98744.02;;;15.26;63.38
72096;BME280;59968;51.084;16.748;2024-03-23T09:31:12;98739.82;;;15.26;63.46
72096;BME280;59968;51.084;16.748;2024-03-23T09:33:43;98724.89;;;15.25;63.46
72096;BME280;59968;51.084;16.748;2024-03-23T09:36:12;98729.87;;;15.31;63.40
72096;BME280;59968;51.084;16.748;2024-03-23T09:38:41;98724.83;;;15.39;63.69
72096;BME280;59968;51.084;16.748;2024-03-23T09:41:10;98723.05;;;15.51;63.49
72096;BME280;59968;51.084;16.748;2024-03-23T09:43:39;98718.80;;;15.66;63.92
72096;BME280;59968;51.084;16.748;2024-03-23T09:46:08;98717.17;;;15.80;63.51
72096;BME280;59968;51.084;16.748;2024-03-23T09:48:40;98712.69;;;15.91;63.16
72096;BME280;59968;51.084;16.748;2024-03-23T09:51:09;98700.14;;;15.99;62.83
72096;BME280;59968;51.084;16.748;2024-03-23T09:53:38;98683.23;;;16.02;62.12
72096;BME280;59968;51.084;16.748;2024-03-23T09:56:07;98685.22;;;16.11;62.15
72096;BME280;59968;51.084;16.748;2024-03-23T09:58:36;98683.08;;;16.15;62.28
72096;BME280;59968;51.084;16.748;2024-03-23T10:01:05;98679.81;;;16.24;61.39
72096;BME280;59968;51.084;16.748;2024-03-23T10:03:42;98676.14;;;16.30;61.51
72096;BME280;59968;51.084;16.748;2024-03-23T10:06:10;98678.84;;;16.37;61.14
72096;BME280;59968;51.084;16.748;2024-03-23T10:08:39;98680.45;;;16.45;61.44
72096;BME280;59968;51.084;16.748;2024-03-23T10:11:14;98688.88;;;16.54;61.84
72096;BME280;59968;51.084;16.748;2024-03-23T10:13:46;98688.80;;;16.70;61.57
72096;BME280;59968;51.084;16.748;2024-03-23T10:16:23;98686.27;;;16.82;61.52
72096;BME280;59968;51.084;16.748;2024-03-23T10:18:52;98679.42;;;16.95;61.46
72096;BME280;59968;51.084;16.748;2024-03-23T10:21:21;98680.05;;;17.06;61.49
72096;BME280;59968;51.084;16.748;2024-03-23T10:23:49;98669.61;;;17.16;60.52
72096;BME280;59968;51.084;16.748;2024-03-23T10:26:21;98665.90;;;17.24;59.79
72096;BME280;59968;51.084;16.748;2024-03-23T10:29:00;98660.16;;;17.30;58.83
72096;BME280;59968;51.084;16.748;2024-03-23T10:31:33;98653.25;;;17.36;58.34
72096;BME280;59968;51.084;16.748;2024-03-23T10:34:02;98651.12;;;17.49;58.70
72096;BME280;59968;51.084;16.748;2024-03-23T10:36:32;98649.27;;;17.62;58.39
72096;BME280;59968;51.084;16.748;2024-03-23T10:39:02;98653.94;;;17.73;57.62
72096;BME280;59968;51.084;16.748;2024-03-23T10:41:35;98645.44;;;17.81;57.26
72096;BME280;59968;51.084;16.748;2024-03-23T10:44:04;98641.45;;;17.82;56.47
72096;BME280;59968;51.084;16.748;2024-03-23T10:46:32;98636.87;;;17.82;56.45
72096;BME280;59968;51.084;16.748;2024-03-23T10:49:01;98629.50;;;17.87;56.59
72096;BME280;59968;51.084;16.748;2024-03-23T10:51:30;98620.63;;;17.93;56.81
72096;BME280;59968;51.084;16.748;2024-03-23T10:54:04;98613.09;;;17.93;56.56
72096;BME280;59968;51.084;16.748;2024-03-23T10:56:37;98601.63;;;17.94;56.50
72096;BME280;59968;51.084;16.748;2024-03-23T10:59:09;98599.98;;;18.00;56.17
72096;BME280;59968;51.084;16.748;2024-03-23T11:01:57;98600.56;;;18.06;56.06
72096;BME280;59968;51.084;16.748;2024-03-23T11:04:36;98596.21;;;18.10;55.73
72096;BME280;59968;51.084;16.748;2024-03-23T11:09:55;98578.20;;;18.20;55.88
72096;BME280;59968;51.084;16.748;2024-03-23T11:17:26;98565.83;;;18.57;55.48
72096;BME280;59968;51.084;16.748;2024-03-23T11:22:43;98562.33;;;18.87;55.57
72096;BME280;59968;51.084;16.748;2024-03-23T11:25:22;98565.23;;;19.00;54.72
72096;BME280;59968;51.084;16.748;2024-03-23T11:27:58;98561.45;;;19.07;53.86
72096;BME280;59968;51.084;16.748;2024-03-23T11:30:28;98555.02;;;19.12;52.53
72096;BME280;59968;51.084;16.748;2024-03-23T11:32:57;98554.36;;;19.13;52.21
72096;BME280;59968;51.084;16.748;2024-03-23T11:35:32;98545.91;;;19.13;52.63
72096;BME280;59968;51.084;16.748;2024-03-23T11:40:34;98537.20;;;19.05;52.00
72096;BME280;59968;51.084;16.748;2024-03-23T11:43:04;98539.60;;;19.00;52.26
72096;BME280;59968;51.084;16.748;2024-03-23T11:45:37;98538.11;;;18.95;52.06
72096;BME280;59968;51.084;16.748;2024-03-23T11:48:12;98546.36;;;18.87;50.84
72096;BME280;59968;51.084;16.748;2024-03-23T11:50:42;98548.34;;;18.76;49.74
72096;BME280;59968;51.084;16.748;2024-03-23T11:53:20;98557.33;;;18.65;48.84
72096;BME280;59968;51.084;16.748;2024-03-23T11:55:53;98566.85;;;18.51;49.21
72096;BME280;59968;51.084;16.748;2024-03-23T11:58:23;98570.27;;;18.40;49.90
72096;BME280;59968;51.084;16.748;2024-03-23T12:00:52;98575.38;;;18.29;51.12
72096;BME280;59968;51.084;16.748;2024-03-23T12:03:20;98577.42;;;18.21;52.10
72096;BME280;59968;51.084;16.748;2024-03-23T12:06:03;98574.04;;;18.12;52.52
72096;BME280;59968;51.084;16.748;2024-03-23T12:08:35;98575.11;;;18.06;52.94
72096;BME280;59968;51.084;16.748;2024-03-23T12:11:13;98579.98;;;18.03;52.79
72096;BME280;59968;51.084;16.748;2024-03-23T12:13:44;98584.63;;;17.99;51.63
72096;BME280;59968;51.084;16.748;2024-03-23T12:16:15;98585.73;;;17.94;50.21
72096;BME280;59968;51.084;16.748;2024-03-23T12:18:48;98594.72;;;17.87;50.79
72096;BME280;59968;51.084;16.748;2024-03-23T12:21:17;98596.05;;;17.79;50.60
72096;BME280;59968;51.084;16.748;2024-03-23T12:23:46;98599.92;;;17.69;50.89
72096;BME280;59968;51.084;16.748;2024-03-23T12:26:16;98594.94;;;17.58;51.17
72096;BME280;59968;51.084;16.748;2024-03-23T12:28:46;98593.09;;;17.47;51.91
72096;BME280;59968;51.084;16.748;2024-03-23T12:31:14;98592.34;;;17.38;51.77
72096;BME280;59968;51.084;16.748;2024-03-23T12:33:43;98591.14;;;17.30;51.76
72096;BME280;59968;51.084;16.748;2024-03-23T12:36:12;98589.23;;;17.26;51.64
72096;BME280;59968;51.084;16.748;2024-03-23T12:38:42;98598.63;;;17.22;52.36
72096;BME280;59968;51.084;16.748;2024-03-23T12:41:11;98606.80;;;17.16;52.67
72096;BME280;59968;51.084;16.748;2024-03-23T12:43:39;98605.57;;;17.03;52.24
72096;BME280;59968;51.084;16.748;2024-03-23T12:46:08;98608.08;;;16.95;52.13
72096;BME280;59968;51.084;16.748;2024-03-23T12:48:36;98610.39;;;16.84;51.68
72096;BME280;59968;51.084;16.748;2024-03-23T12:51:04;98628.26;;;16.70;51.58
72096;BME280;59968;51.084;16.748;2024-03-23T12:53:33;98675.48;;;16.46;54.17
72096;BME280;59968;51.084;16.748;2024-03-23T12:56:01;98682.52;;;15.90;55.90
72096;BME280;59968;51.084;16.748;2024-03-23T12:58:30;98694.16;;;15.38;56.02
72096;BME280;59968;51.084;16.748;2024-03-23T13:00:59;98711.60;;;14.89;56.75
72096;BME280;59968;51.084;16.748;2024-03-23T13:03:27;98723.59;;;14.48;58.91
72096;BME280;59968;51.084;16.748;2024-03-23T13:05:55;98727.43;;;14.11;61.32
72096;BME280;59968;51.084;16.748;2024-03-23T13:08:24;98727.16;;;13.77;63.79
72096;BME280;59968;51.084;16.748;2024-03-23T13:10:53;98732.22;;;13.50;66.07
72096;BME280;59968;51.084;16.748;2024-03-23T13:13:21;98733.30;;;13.25;67.15
72096;BME280;59968;51.084;16.748;2024-03-23T13:15:50;98733.48;;;13.09;67.15
72096;BME280;59968;51.084;16.748;2024-03-23T13:18:19;98745.22;;;13.00;67.37
72096;BME280;59968;51.084;16.748;2024-03-23T13:20:47;98757.68;;;12.94;67.39
72096;BME280;59968;51.084;16.748;2024-03-23T13:23:16;98769.82;;;12.84;64.12
72096;BME280;59968;51.084;16.748;2024-03-23T13:25:55;98800.16;;;12.68;63.16
72096;BME280;59968;51.084;16.748;2024-03-23T13:28:23;98805.63;;;12.64;63.31
72096;BME280;59968;51.084;16.748;2024-03-23T13:30:56;98812.59;;;12.62;63.91
72096;BME280;59968;51.084;16.748;2024-03-23T13:33:26;98830.27;;;12.54;64.06
72096;BME280;59968;51.084;16.748;2024-03-23T13:35:55;98831.18;;;12.46;64.22
72096;BME280;59968;51.084;16.748;2024-03-23T13:38:24;98828.80;;;12.30;63.80
72096;BME280;59968;51.084;16.748;2024-03-23T13:40:55;98842.33;;;12.10;65.30
72096;BME280;59968;51.084;16.748;2024-03-23T13:43:26;98854.05;;;11.92;66.09
72096;BME280;59968;51.084;16.748;2024-03-23T13:45:59;98881.48;;;11.60;66.61
72096;BME280;59968;51.084;16.748;2024-03-23T13:48:27;98891.94;;;11.31;67.80
72096;BME280;59968;51.084;16.748;2024-03-23T13:51:01;98906.05;;;10.99;68.22
72096;BME280;59968;51.084;16.748;2024-03-23T13:53:31;98915.45;;;10.61;69.14
72096;BME280;59968;51.084;16.748;2024-03-23T13:56:03;98917.80;;;10.27;70.59
72096;BME280;59968;51.084;16.748;2024-03-23T13:58:31;98921.59;;;10.07;71.44
72096;BME280;59968;51.084;16.748;2024-03-23T14:01:00;98924.61;;;9.78;69.61
72096;BME280;59968;51.084;16.748;2024-03-23T14:03:29;98941.20;;;9.50;69.34
72096;BME280;59968;51.084;16.748;2024-03-23T14:05:58;98952.04;;;9.28;70.28
72096;BME280;59968;51.084;16.748;2024-03-23T14:08:30;98968.15;;;9.10;70.79